sensor_id;sensor_type;location;lat;lon;timestamp;temperature;humidity
18894;DHT22;9579;49.488;8.226;2023-09-19T00:01:45;20.00;99.90
18894;DHT22;9579;49.488;8.226;2023-09-19T00:04:34;20.00;99.90
18894;DHT22;9579;49.488;8.226;2023-09-19T00:07:21;19.90;99.90
18894;DHT22;9579;49.488;8.226;2023-09-19T00:10:08;19.90;99.90
18894;DHT22;9579;49.488;8.226;2023-09-19T00:12:57;19.90;99.90
18894;DHT22;9579;49.488;8.226;2023-09-19T00:15:47;19.90;99.90
18894;DHT22;9579;49.488;8.226;2023-09-19T00:18:35;19.80;99.90
18894;DHT22;9579;49.488;8.226;2023-09-19T00:21:23;19.80;99.90
18894;DHT22;9579;49.488;8.226;2023-09-19T00:24:10;19.80;99.90
18894;DHT22;9579;49.488;8.226;2023-09-19T00:26:57;19.80;99.90
18894;DHT22;9579;49.488;8.226;2023-09-19T00:29:45;19.80;99.90
18894;DHT22;9579;49.488;8.226;2023-09-19T00:32:32;19.80;99.90
18894;DHT22;9579;49.488;8.226;2023-09-19T00:35:19;19.70;99.90
18894;DHT22;9579;49.488;8.226;2023-09-19T00:38:08;19.70;99.90
18894;DHT22;9579;49.488;8.226;2023-09-19T00:40:56;19.70;99.90
18894;DHT22;9579;49.488;8.226;2023-09-19T00:43:45;19.60;99.90
18894;DHT22;9579;49.488;8.226;2023-09-19T00:46:33;19.70;99.90
18894;DHT22;9579;49.488;8.226;2023-09-19T00:49:20;19.70;99.90
18894;DHT22;9579;49.488;8.226;2023-09-19T00:52:08;19.70;99.90
18894;DHT22;9579;49.488;8.226;2023-09-19T00:54:57;19.70;99.90
18894;DHT22;9579;49.488;8.226;2023-09-19T00:57:46;19.70;99.90
18894;DHT22;9579;49.488;8.226;2023-09-19T01:00:35;19.80;99.90
18894;DHT22;9579;49.488;8.226;2023-09-19T01:03:22;19.80;99.90
18894;DHT22;9579;49.488;8.226;2023-09-19T01:06:10;19.70;99.90
18894;DHT22;9579;49.488;8.226;2023-09-19T01:08:58;19.70;99.90
18894;DHT22;9579;49.488;8.226;2023-09-19T01:11:49;19.60;99.90
18894;DHT22;9579;49.488;8.226;2023-09-19T01:14:44;19.70;99.90
18894;DHT22;9579;49.488;8.226;2023-09-19T01:17:38;19.70;99.90
18894;DHT22;9579;49.488;8.226;2023-09-19T01:20:37;19.80;99.90
18894;DHT22;9579;49.488;8.226;2023-09-19T01:23:34;19.90;99.90
18894;DHT22;9579;49.488;8.226;2023-09-19T01:26:53;19.80;99.90
18894;DHT22;9579;49.488;8.226;2023-09-19T01:29:44;19.80;99.90
18894;DHT22;9579;49.488;8.226;2023-09-19T01:32:33;19.80;99.90
18894;DHT22;9579;49.488;8.226;2023-09-19T01:35:21;19.80;99.90
18894;DHT22;9579;49.488;8.226;2023-09-19T01:38:08;19.90;99.90
18894;DHT22;9579;49.488;8.226;2023-09-19T01:41:03;19.80;99.90
18894;DHT22;9579;49.488;8.226;2023-09-19T01:43:53;19.80;99.90
18894;DHT22;9579;49.488;8.226;2023-09-19T01:46:41;19.80;99.90
18894;DHT22;9579;49.488;8.226;2023-09-19T01:49:36;19.90;99.90
18894;DHT22;9579;49.488;8.226;2023-09-19T01:52:27;19.80;99.90
18894;DHT22;9579;49.488;8.226;2023-09-19T01:55:17;19.80;99.90
18894;DHT22;9579;49.488;8.226;2023-09-19T01:58:07;19.90;99.90
18894;DHT22;9579;49.488;8.226;2023-09-19T02:00:58;19.80;99.90
18894;DHT22;9579;49.488;8.226;2023-09-19T02:03:47;19.80;99.90
18894;DHT22;9579;49.488;8.226;2023-09-19T02:06:39;19.80;99.90
18894;DHT22;9579;49.488;8.226;2023-09-19T02:09:26;19.80;99.90
18894;DHT22;9579;49.488;8.226;2023-09-19T02:12:13;19.70;99.90
18894;DHT22;9579;49.488;8.226;2023-09-19T02:15:01;19.70;99.90
18894;DHT22;9579;49.488;8.226;2023-09-19T02:17:48;19.80;99.90
18894;DHT22;9579;49.488;8.226;2023-09-19T02:20:35;19.50;99.90
18894;DHT22;9579;49.488;8.226;2023-09-19T02:23:24;19.60;99.90
18894;DHT22;9579;49.488;8.226;2023-09-19T02:26:11;19.70;99.90
18894;DHT22;9579;49.488;8.226;2023-09-19T02:28:59;19.70;99.90
18894;DHT22;9579;49.488;8.226;2023-09-19T02:31:46;19.60;99.90
18894;DHT22;9579;49.488;8.226;2023-09-19T02:34:33;19.70;99.90
18894;DHT22;9579;49.488;8.226;2023-09-19T02:37:21;19.50;99.90
18894;DHT22;9579;49.488;8.226;2023-09-19T02:40:10;19.50;99.90
18894;DHT22;9579;49.488;8.226;2023-09-19T02:43:04;19.50;99.90
18894;DHT22;9579;49.488;8.226;2023-09-19T02:45:52;19.50;99.90
18894;DHT22;9579;49.488;8.226;2023-09-19T02:48:40;19.50;99.90
18894;DHT22;9579;49.488;8.226;2023-09-19T02:51:27;19.60;99.90
18894;DHT22;9579;49.488;8.226;2023-09-19T02:54:14;19.50;99.90
18894;DHT22;9579;49.488;8.226;2023-09-19T02:57:04;19.60;99.90
18894;DHT22;9579;49.488;8.226;2023-09-19T02:59:53;19.70;99.90
18894;DHT22;9579;49.488;8.226;2023-09-19T03:02:40;19.70;99.90
18894;DHT22;9579;49.488;8.226;2023-09-19T03:05:27;19.70;99.90
18894;DHT22;9579;49.488;8.226;2023-09-19T03:08:16;19.60;99.90
18894;DHT22;9579;49.488;8.226;2023-09-19T03:11:03;19.60;99.90
18894;DHT22;9579;49.488;8.226;2023-09-19T03:13:54;19.50;99.90
18894;DHT22;9579;49.488;8.226;2023-09-19T03:16:41;19.50;99.90
18894;DHT22;9579;49.488;8.226;2023-09-19T03:19:30;19.40;99.90
18894;DHT22;9579;49.488;8.226;2023-09-19T03:22:19;19.50;99.90
18894;DHT22;9579;49.488;8.226;2023-09-19T03:25:07;19.50;99.90
18894;DHT22;9579;49.488;8.226;2023-09-19T03:27:56;19.50;99.90
18894;DHT22;9579;49.488;8.226;2023-09-19T03:30:45;19.50;99.90
18894;DHT22;9579;49.488;8.226;2023-09-19T03:33:32;19.50;99.90
18894;DHT22;9579;49.488;8.226;2023-09-19T03:36:20;19.40;99.90
18894;DHT22;9579;49.488;8.226;2023-09-19T03:39:06;19.40;99.90
18894;DHT22;9579;49.488;8.226;2023-09-19T03:41:53;19.40;99.90
18894;DHT22;9579;49.488;8.226;2023-09-19T03:44:40;19.40;99.90
18894;DHT22;9579;49.488;8.226;2023-09-19T03:47:29;19.40;99.90
18894;DHT22;9579;49.488;8.226;2023-09-19T03:50:16;19.40;99.90
18894;DHT22;9579;49.488;8.226;2023-09-19T03:53:03;19.20;99.90
18894;DHT22;9579;49.488;8.226;2023-09-19T03:55:50;19.40;99.90
18894;DHT22;9579;49.488;8.226;2023-09-19T03:58:37;19.40;99.90
18894;DHT22;9579;49.488;8.226;2023-09-19T04:01:25;19.40;99.90
18894;DHT22;9579;49.488;8.226;2023-09-19T04:04:15;19.40;99.90
18894;DHT22;9579;49.488;8.226;2023-09-19T04:07:04;19.40;99.90
18894;DHT22;9579;49.488;8.226;2023-09-19T04:09:51;19.30;99.90
18894;DHT22;9579;49.488;8.226;2023-09-19T04:12:39;19.20;99.90
18894;DHT22;9579;49.488;8.226;2023-09-19T04:15:26;19.20;99.90
18894;DHT22;9579;49.488;8.226;2023-09-19T04:18:13;19.30;99.90
18894;DHT22;9579;49.488;8.226;2023-09-19T04:21:01;19.30;99.90
18894;DHT22;9579;49.488;8.226;2023-09-19T04:23:49;19.40;99.90
18894;DHT22;9579;49.488;8.226;2023-09-19T04:26:37;19.30;99.90
18894;DHT22;9579;49.488;8.226;2023-09-19T04:29:24;19.30;99.90
18894;DHT22;9579;49.488;8.226;2023-09-19T04:32:12;19.30;99.90
18894;DHT22;9579;49.488;8.226;2023-09-19T04:34:59;19.20;99.90
18894;DHT22;9579;49.488;8.226;2023-09-19T04:37:50;19.20;99.90
18894;DHT22;9579;49.488;8.226;2023-09-19T04:40:38;19.10;99.90
18894;DHT22;9579;49.488;8.226;2023-09-19T04:43:26;19.10;99.90
18894;DHT22;9579;49.488;8.226;2023-09-19T04:46:14;19.10;99.90
18894;DHT22;9579;49.488;8.226;2023-09-19T04:49:02;19.10;99.90
18894;DHT22;9579;49.488;8.226;2023-09-19T04:51:49;19.10;99.90
18894;DHT22;9579;49.488;8.226;2023-09-19T04:54:37;19.10;99.90
18894;DHT22;9579;49.488;8.226;2023-09-19T04:57:25;19.00;99.90
18894;DHT22;9579;49.488;8.226;2023-09-19T05:00:15;18.90;99.90
18894;DHT22;9579;49.488;8.226;2023-09-19T05:03:03;18.80;99.90
18894;DHT22;9579;49.488;8.226;2023-09-19T05:05:51;18.80;99.90
18894;DHT22;9579;49.488;8.226;2023-09-19T05:08:38;18.80;99.90
18894;DHT22;9579;49.488;8.226;2023-09-19T05:11:27;18.70;99.90
18894;DHT22;9579;49.488;8.226;2023-09-19T05:14:16;18.80;99.90
18894;DHT22;9579;49.488;8.226;2023-09-19T05:17:03;18.80;99.90
18894;DHT22;9579;49.488;8.226;2023-09-19T05:19:51;18.90;99.90
18894;DHT22;9579;49.488;8.226;2023-09-19T05:22:38;18.90;99.90
18894;DHT22;9579;49.488;8.226;2023-09-19T05:25:26;19.10;99.90
18894;DHT22;9579;49.488;8.226;2023-09-19T05:28:16;19.10;99.90
18894;DHT22;9579;49.488;8.226;2023-09-19T05:31:03;19.10;99.90
18894;DHT22;9579;49.488;8.226;2023-09-19T05:33:51;19.20;99.90
18894;DHT22;9579;49.488;8.226;2023-09-19T05:36:40;19.20;99.90
18894;DHT22;9579;49.488;8.226;2023-09-19T05:39:27;19.20;99.90
18894;DHT22;9579;49.488;8.226;2023-09-19T05:42:14;19.20;99.90
18894;DHT22;9579;49.488;8.226;2023-09-19T05:45:03;19.20;99.90
18894;DHT22;9579;49.488;8.226;2023-09-19T05:47:52;19.30;99.90
18894;DHT22;9579;49.488;8.226;2023-09-19T05:50:41;19.30;99.90
18894;DHT22;9579;49.488;8.226;2023-09-19T05:53:28;19.40;99.90
18894;DHT22;9579;49.488;8.226;2023-09-19T05:56:15;19.40;99.90
18894;DHT22;9579;49.488;8.226;2023-09-19T05:59:04;19.40;99.90
18894;DHT22;9579;49.488;8.226;2023-09-19T06:01:53;19.50;99.90
18894;DHT22;9579;49.488;8.226;2023-09-19T06:04:41;19.50;99.90
18894;DHT22;9579;49.488;8.226;2023-09-19T06:07:27;19.50;99.90
18894;DHT22;9579;49.488;8.226;2023-09-19T06:10:22;19.50;99.90
18894;DHT22;9579;49.488;8.226;2023-09-19T06:13:09;19.50;99.90
18894;DHT22;9579;49.488;8.226;2023-09-19T06:15:56;19.30;99.90
18894;DHT22;9579;49.488;8.226;2023-09-19T06:18:45;19.30;99.90
18894;DHT22;9579;49.488;8.226;2023-09-19T06:21:32;19.20;99.90
18894;DHT22;9579;49.488;8.226;2023-09-19T06:24:20;19.20;99.90
18894;DHT22;9579;49.488;8.226;2023-09-19T06:27:07;19.20;99.90
18894;DHT22;9579;49.488;8.226;2023-09-19T06:29:54;19.20;99.90
18894;DHT22;9579;49.488;8.226;2023-09-19T06:32:41;19.00;99.90
18894;DHT22;9579;49.488;8.226;2023-09-19T06:35:32;18.90;99.90
18894;DHT22;9579;49.488;8.226;2023-09-19T06:38:19;18.90;99.90
18894;DHT22;9579;49.488;8.226;2023-09-19T06:41:07;18.90;99.90
18894;DHT22;9579;49.488;8.226;2023-09-19T06:43:54;19.00;99.90
18894;DHT22;9579;49.488;8.226;2023-09-19T06:46:41;19.10;99.90
18894;DHT22;9579;49.488;8.226;2023-09-19T06:49:30;19.20;99.90
18894;DHT22;9579;49.488;8.226;2023-09-19T06:52:18;19.30;99.90
18894;DHT22;9579;49.488;8.226;2023-09-19T06:55:08;19.40;99.90
18894;DHT22;9579;49.488;8.226;2023-09-19T06:57:57;19.50;99.90
18894;DHT22;9579;49.488;8.226;2023-09-19T07:00:44;19.70;99.90
18894;DHT22;9579;49.488;8.226;2023-09-19T07:03:32;19.90;99.90
18894;DHT22;9579;49.488;8.226;2023-09-19T07:06:19;20.10;99.90
18894;DHT22;9579;49.488;8.226;2023-09-19T07:09:07;20.40;99.90
18894;DHT22;9579;49.488;8.226;2023-09-19T07:11:55;20.50;99.90
18894;DHT22;9579;49.488;8.226;2023-09-19T07:14:42;20.50;99.90
18894;DHT22;9579;49.488;8.226;2023-09-19T07:17:29;20.60;99.90
18894;DHT22;9579;49.488;8.226;2023-09-19T07:20:18;20.50;99.90
18894;DHT22;9579;49.488;8.226;2023-09-19T07:23:06;20.40;99.90
18894;DHT22;9579;49.488;8.226;2023-09-19T07:25:57;20.50;99.90
18894;DHT22;9579;49.488;8.226;2023-09-19T07:28:45;20.60;99.90
18894;DHT22;9579;49.488;8.226;2023-09-19T07:31:32;20.60;99.90
18894;DHT22;9579;49.488;8.226;2023-09-19T07:34:20;20.70;99.90
18894;DHT22;9579;49.488;8.226;2023-09-19T07:37:08;20.90;99.90
18894;DHT22;9579;49.488;8.226;2023-09-19T07:39:55;21.00;99.90
18894;DHT22;9579;49.488;8.226;2023-09-19T07:42:44;21.10;99.90
18894;DHT22;9579;49.488;8.226;2023-09-19T07:45:32;21.10;99.90
18894;DHT22;9579;49.488;8.226;2023-09-19T07:48:20;21.20;99.90
18894;DHT22;9579;49.488;8.226;2023-09-19T07:51:07;21.40;99.90
18894;DHT22;9579;49.488;8.226;2023-09-19T07:53:55;21.60;99.90
18894;DHT22;9579;49.488;8.226;2023-09-19T07:56:42;21.60;99.10
18894;DHT22;9579;49.488;8.226;2023-09-19T07:59:30;21.50;99.00
18894;DHT22;9579;49.488;8.226;2023-09-19T08:02:17;21.10;99.40
18894;DHT22;9579;49.488;8.226;2023-09-19T08:05:04;21.00;99.90
18894;DHT22;9579;49.488;8.226;2023-09-19T08:07:55;21.00;99.70
18894;DHT22;9579;49.488;8.226;2023-09-19T08:10:43;20.80;99.30
18894;DHT22;9579;49.488;8.226;2023-09-19T08:13:31;20.70;99.50
18894;DHT22;9579;49.488;8.226;2023-09-19T08:16:19;20.50;99.90
18894;DHT22;9579;49.488;8.226;2023-09-19T08:19:08;20.40;99.90
18894;DHT22;9579;49.488;8.226;2023-09-19T08:21:56;20.40;99.70
18894;DHT22;9579;49.488;8.226;2023-09-19T08:24:44;20.20;99.90
18894;DHT22;9579;49.488;8.226;2023-09-19T08:27:32;20.10;99.90
18894;DHT22;9579;49.488;8.226;2023-09-19T08:30:22;20.10;99.90
18894;DHT22;9579;49.488;8.226;2023-09-19T08:33:11;20.20;99.90
18894;DHT22;9579;49.488;8.226;2023-09-19T08:36:00;20.30;99.50
18894;DHT22;9579;49.488;8.226;2023-09-19T08:38:50;20.40;99.50
18894;DHT22;9579;49.488;8.226;2023-09-19T08:41:37;20.40;99.50
18894;DHT22;9579;49.488;8.226;2023-09-19T08:44:24;20.30;99.20
18894;DHT22;9579;49.488;8.226;2023-09-19T08:47:15;20.40;99.30
18894;DHT22;9579;49.488;8.226;2023-09-19T08:50:11;20.40;99.50
18894;DHT22;9579;49.488;8.226;2023-09-19T08:53:02;20.40;98.90
18894;DHT22;9579;49.488;8.226;2023-09-19T08:55:54;20.40;98.80
18894;DHT22;9579;49.488;8.226;2023-09-19T08:58:46;20.50;98.50
18894;DHT22;9579;49.488;8.226;2023-09-19T09:01:35;20.70;98.90
18894;DHT22;9579;49.488;8.226;2023-09-19T09:04:23;20.90;98.40
18894;DHT22;9579;49.488;8.226;2023-09-19T09:07:13;21.30;97.50
18894;DHT22;9579;49.488;8.226;2023-09-19T09:10:03;21.50;96.20
18894;DHT22;9579;49.488;8.226;2023-09-19T09:12:51;21.50;96.60
18894;DHT22;9579;49.488;8.226;2023-09-19T09:15:41;21.50;96.30
18894;DHT22;9579;49.488;8.226;2023-09-19T09:18:30;21.60;95.80
18894;DHT22;9579;49.488;8.226;2023-09-19T09:21:17;21.80;95.80
18894;DHT22;9579;49.488;8.226;2023-09-19T09:24:27;22.10;95.60
18894;DHT22;9579;49.488;8.226;2023-09-19T09:27:15;22.20;95.00
18894;DHT22;9579;49.488;8.226;2023-09-19T09:30:04;22.10;94.60
18894;DHT22;9579;49.488;8.226;2023-09-19T09:33:07;22.00;94.80
18894;DHT22;9579;49.488;8.226;2023-09-19T09:35:58;22.00;94.80
18894;DHT22;9579;49.488;8.226;2023-09-19T09:38:47;22.00;95.20
18894;DHT22;9579;49.488;8.226;2023-09-19T09:41:37;22.20;94.80
18894;DHT22;9579;49.488;8.226;2023-09-19T09:44:25;22.20;94.20
18894;DHT22;9579;49.488;8.226;2023-09-19T09:47:43;22.20;94.40
18894;DHT22;9579;49.488;8.226;2023-09-19T09:50:36;22.40;94.80
18894;DHT22;9579;49.488;8.226;2023-09-19T09:53:30;22.60;94.40
18894;DHT22;9579;49.488;8.226;2023-09-19T09:56:18;22.70;93.50
18894;DHT22;9579;49.488;8.226;2023-09-19T09:59:06;22.80;94.10
18894;DHT22;9579;49.488;8.226;2023-09-19T10:01:53;23.00;93.40
18894;DHT22;9579;49.488;8.226;2023-09-19T10:04:42;23.10;93.30
18894;DHT22;9579;49.488;8.226;2023-09-19T10:07:37;22.90;91.60
18894;DHT22;9579;49.488;8.226;2023-09-19T10:10:32;23.00;92.40
18894;DHT22;9579;49.488;8.226;2023-09-19T10:13:30;23.00;92.10
18894;DHT22;9579;49.488;8.226;2023-09-19T10:16:20;22.80;92.30
18894;DHT22;9579;49.488;8.226;2023-09-19T10:19:09;22.80;91.70
18894;DHT22;9579;49.488;8.226;2023-09-19T10:21:58;22.80;92.30
18894;DHT22;9579;49.488;8.226;2023-09-19T10:24:47;22.80;91.90
18894;DHT22;9579;49.488;8.226;2023-09-19T10:27:35;22.90;92.20
18894;DHT22;9579;49.488;8.226;2023-09-19T10:30:24;22.80;92.10
18894;DHT22;9579;49.488;8.226;2023-09-19T10:33:13;22.90;91.20
18894;DHT22;9579;49.488;8.226;2023-09-19T10:36:01;22.80;90.40
18894;DHT22;9579;49.488;8.226;2023-09-19T10:38:50;22.70;90.90
18894;DHT22;9579;49.488;8.226;2023-09-19T10:41:40;22.60;92.90
18894;DHT22;9579;49.488;8.226;2023-09-19T10:44:32;22.80;91.80
18894;DHT22;9579;49.488;8.226;2023-09-19T10:47:20;23.20;92.00
18894;DHT22;9579;49.488;8.226;2023-09-19T10:50:19;23.40;90.80
18894;DHT22;9579;49.488;8.226;2023-09-19T10:53:08;23.50;90.10
18894;DHT22;9579;49.488;8.226;2023-09-19T10:55:59;23.40;90.40
18894;DHT22;9579;49.488;8.226;2023-09-19T10:59:06;23.40;90.50
18894;DHT22;9579;49.488;8.226;2023-09-19T11:01:56;23.70;90.30
18894;DHT22;9579;49.488;8.226;2023-09-19T11:04:43;23.80;89.70
18894;DHT22;9579;49.488;8.226;2023-09-19T11:07:58;23.80;89.70
18894;DHT22;9579;49.488;8.226;2023-09-19T11:10:46;24.10;90.20
18894;DHT22;9579;49.488;8.226;2023-09-19T11:13:33;24.50;90.80
18894;DHT22;9579;49.488;8.226;2023-09-19T11:16:24;24.80;88.20
18894;DHT22;9579;49.488;8.226;2023-09-19T11:19:11;24.70;86.50
18894;DHT22;9579;49.488;8.226;2023-09-19T11:21:58;24.60;88.00
18894;DHT22;9579;49.488;8.226;2023-09-19T11:24:45;24.50;88.90
18894;DHT22;9579;49.488;8.226;2023-09-19T11:27:32;24.60;87.00
18894;DHT22;9579;49.488;8.226;2023-09-19T11:30:26;24.50;87.20
18894;DHT22;9579;49.488;8.226;2023-09-19T11:33:16;24.60;88.20
18894;DHT22;9579;49.488;8.226;2023-09-19T11:36:07;24.80;87.70
18894;DHT22;9579;49.488;8.226;2023-09-19T11:38:59;25.00;87.00
18894;DHT22;9579;49.488;8.226;2023-09-19T11:41:55;25.00;87.10
18894;DHT22;9579;49.488;8.226;2023-09-19T11:44:43;25.20;86.70
18894;DHT22;9579;49.488;8.226;2023-09-19T11:47:30;25.30;84.60
18894;DHT22;9579;49.488;8.226;2023-09-19T11:50:19;25.20;86.70
18894;DHT22;9579;49.488;8.226;2023-09-19T11:53:07;25.00;85.40
18894;DHT22;9579;49.488;8.226;2023-09-19T11:55:56;24.60;86.10
18894;DHT22;9579;49.488;8.226;2023-09-19T11:58:49;24.50;88.40
18894;DHT22;9579;49.488;8.226;2023-09-19T12:01:51;25.00;87.70
18894;DHT22;9579;49.488;8.226;2023-09-19T12:04:44;25.50;86.70
18894;DHT22;9579;49.488;8.226;2023-09-19T12:07:42;25.70;83.10
18894;DHT22;9579;49.488;8.226;2023-09-19T12:10:30;25.30;82.60
18894;DHT22;9579;49.488;8.226;2023-09-19T12:13:17;25.00;84.50
18894;DHT22;9579;49.488;8.226;2023-09-19T12:16:11;25.00;85.30
18894;DHT22;9579;49.488;8.226;2023-09-19T12:19:17;25.20;84.00
18894;DHT22;9579;49.488;8.226;2023-09-19T12:22:06;24.90;84.50
18894;DHT22;9579;49.488;8.226;2023-09-19T12:25:06;24.70;84.30
18894;DHT22;9579;49.488;8.226;2023-09-19T12:27:54;24.50;86.00
18894;DHT22;9579;49.488;8.226;2023-09-19T12:30:41;24.60;85.90
18894;DHT22;9579;49.488;8.226;2023-09-19T12:33:31;24.60;86.10
18894;DHT22;9579;49.488;8.226;2023-09-19T12:36:20;24.80;86.20
18894;DHT22;9579;49.488;8.226;2023-09-19T12:39:11;24.90;85.70
18894;DHT22;9579;49.488;8.226;2023-09-19T12:41:59;25.20;84.20
18894;DHT22;9579;49.488;8.226;2023-09-19T12:44:51;25.30;83.60
18894;DHT22;9579;49.488;8.226;2023-09-19T12:47:41;25.30;83.70
18894;DHT22;9579;49.488;8.226;2023-09-19T12:51:05;25.80;82.50
18894;DHT22;9579;49.488;8.226;2023-09-19T12:53:57;26.10;80.00
18894;DHT22;9579;49.488;8.226;2023-09-19T12:56:45;26.00;81.00
18894;DHT22;9579;49.488;8.226;2023-09-19T12:59:34;26.10;81.70
18894;DHT22;9579;49.488;8.226;2023-09-19T13:02:21;26.40;82.40
18894;DHT22;9579;49.488;8.226;2023-09-19T13:05:11;27.70;83.60
18894;DHT22;9579;49.488;8.226;2023-09-19T13:08:17;27.50;80.10
18894;DHT22;9579;49.488;8.226;2023-09-19T13:11:08;27.60;77.40
18894;DHT22;9579;49.488;8.226;2023-09-19T13:14:15;27.70;77.20
18894;DHT22;9579;49.488;8.226;2023-09-19T13:17:03;27.40;78.00
18894;DHT22;9579;49.488;8.226;2023-09-19T13:19:52;27.40;77.50
18894;DHT22;9579;49.488;8.226;2023-09-19T13:22:41;27.30;75.80
18894;DHT22;9579;49.488;8.226;2023-09-19T13:25:32;26.70;77.90
18894;DHT22;9579;49.488;8.226;2023-09-19T13:28:19;26.40;79.30
18894;DHT22;9579;49.488;8.226;2023-09-19T13:31:06;26.80;80.00
18894;DHT22;9579;49.488;8.226;2023-09-19T13:33:53;26.90;78.20
18894;DHT22;9579;49.488;8.226;2023-09-19T13:36:40;27.00;81.00
18894;DHT22;9579;49.488;8.226;2023-09-19T13:39:28;27.50;80.60
18894;DHT22;9579;49.488;8.226;2023-09-19T13:42:16;27.70;76.80
18894;DHT22;9579;49.488;8.226;2023-09-19T13:45:06;27.60;76.50
18894;DHT22;9579;49.488;8.226;2023-09-19T13:47:57;27.40;78.30
18894;DHT22;9579;49.488;8.226;2023-09-19T13:50:44;27.40;78.30
18894;DHT22;9579;49.488;8.226;2023-09-19T13:53:32;27.70;77.30
18894;DHT22;9579;49.488;8.226;2023-09-19T13:56:19;27.60;76.90
18894;DHT22;9579;49.488;8.226;2023-09-19T13:59:08;27.30;77.80
18894;DHT22;9579;49.488;8.226;2023-09-19T14:01:55;27.20;77.30
18894;DHT22;9579;49.488;8.226;2023-09-19T14:04:43;26.90;78.70
18894;DHT22;9579;49.488;8.226;2023-09-19T14:07:30;26.70;79.90
18894;DHT22;9579;49.488;8.226;2023-09-19T14:10:17;26.60;79.30
18894;DHT22;9579;49.488;8.226;2023-09-19T14:13:04;26.40;81.10
18894;DHT22;9579;49.488;8.226;2023-09-19T14:15:52;26.70;81.00
18894;DHT22;9579;49.488;8.226;2023-09-19T14:18:39;26.80;80.20
18894;DHT22;9579;49.488;8.226;2023-09-19T14:21:27;26.90;79.00
18894;DHT22;9579;49.488;8.226;2023-09-19T14:24:16;26.80;79.50
18894;DHT22;9579;49.488;8.226;2023-09-19T14:27:04;26.60;80.40
18894;DHT22;9579;49.488;8.226;2023-09-19T14:29:52;26.40;79.70
18894;DHT22;9579;49.488;8.226;2023-09-19T14:32:41;25.70;82.40
18894;DHT22;9579;49.488;8.226;2023-09-19T14:35:28;25.40;83.50
18894;DHT22;9579;49.488;8.226;2023-09-19T14:38:15;25.30;84.40
18894;DHT22;9579;49.488;8.226;2023-09-19T14:41:03;25.20;84.10
18894;DHT22;9579;49.488;8.226;2023-09-19T14:43:50;25.10;84.70
18894;DHT22;9579;49.488;8.226;2023-09-19T14:46:38;25.20;85.50
18894;DHT22;9579;49.488;8.226;2023-09-19T14:49:26;25.20;85.70
18894;DHT22;9579;49.488;8.226;2023-09-19T14:52:13;25.30;85.70
18894;DHT22;9579;49.488;8.226;2023-09-19T14:55:01;25.50;85.80
18894;DHT22;9579;49.488;8.226;2023-09-19T14:57:50;25.70;84.00
18894;DHT22;9579;49.488;8.226;2023-09-19T15:00:38;25.50;84.30
18894;DHT22;9579;49.488;8.226;2023-09-19T15:03:25;25.40;84.90
18894;DHT22;9579;49.488;8.226;2023-09-19T15:06:14;25.40;84.70
18894;DHT22;9579;49.488;8.226;2023-09-19T15:09:02;25.40;83.80
18894;DHT22;9579;49.488;8.226;2023-09-19T15:11:50;25.30;84.00
18894;DHT22;9579;49.488;8.226;2023-09-19T15:14:38;25.10;83.80
18894;DHT22;9579;49.488;8.226;2023-09-19T15:17:25;24.80;85.50
18894;DHT22;9579;49.488;8.226;2023-09-19T15:20:12;25.40;86.50
18894;DHT22;9579;49.488;8.226;2023-09-19T15:23:01;24.70;86.40
18894;DHT22;9579;49.488;8.226;2023-09-19T15:25:49;24.70;85.50
18894;DHT22;9579;49.488;8.226;2023-09-19T15:28:36;24.80;86.10
18894;DHT22;9579;49.488;8.226;2023-09-19T15:31:23;24.90;85.70
18894;DHT22;9579;49.488;8.226;2023-09-19T15:34:11;24.90;86.50
18894;DHT22;9579;49.488;8.226;2023-09-19T15:37:01;25.00;85.70
18894;DHT22;9579;49.488;8.226;2023-09-19T15:39:50;25.10;86.50
18894;DHT22;9579;49.488;8.226;2023-09-19T15:42:37;25.20;85.90
18894;DHT22;9579;49.488;8.226;2023-09-19T15:45:24;25.10;85.70
18894;DHT22;9579;49.488;8.226;2023-09-19T15:48:12;25.10;86.20
18894;DHT22;9579;49.488;8.226;2023-09-19T15:51:02;25.20;85.40
18894;DHT22;9579;49.488;8.226;2023-09-19T15:53:52;25.10;86.60
18894;DHT22;9579;49.488;8.226;2023-09-19T15:56:43;25.00;86.80
18894;DHT22;9579;49.488;8.226;2023-09-19T15:59:30;24.80;86.10
18894;DHT22;9579;49.488;8.226;2023-09-19T16:02:17;24.80;87.80
18894;DHT22;9579;49.488;8.226;2023-09-19T16:05:05;24.80;88.10
18894;DHT22;9579;49.488;8.226;2023-09-19T16:07:52;24.80;87.90
18894;DHT22;9579;49.488;8.226;2023-09-19T16:10:39;24.90;87.00
18894;DHT22;9579;49.488;8.226;2023-09-19T16:13:27;24.80;85.70
18894;DHT22;9579;49.488;8.226;2023-09-19T16:16:16;24.80;85.90
18894;DHT22;9579;49.488;8.226;2023-09-19T16:19:05;24.70;86.60
18894;DHT22;9579;49.488;8.226;2023-09-19T16:21:56;24.80;87.30
18894;DHT22;9579;49.488;8.226;2023-09-19T16:24:43;24.80;87.30
18894;DHT22;9579;49.488;8.226;2023-09-19T16:27:30;24.80;86.70
18894;DHT22;9579;49.488;8.226;2023-09-19T16:30:18;24.80;88.40
18894;DHT22;9579;49.488;8.226;2023-09-19T16:33:05;24.70;88.00
18894;DHT22;9579;49.488;8.226;2023-09-19T16:35:53;24.60;88.60
18894;DHT22;9579;49.488;8.226;2023-09-19T16:38:42;24.50;89.60
18894;DHT22;9579;49.488;8.226;2023-09-19T16:41:29;24.40;88.40
18894;DHT22;9579;49.488;8.226;2023-09-19T16:44:16;24.20;88.20
18894;DHT22;9579;49.488;8.226;2023-09-19T16:47:07;24.10;88.60
18894;DHT22;9579;49.488;8.226;2023-09-19T16:49:54;24.00;89.30
18894;DHT22;9579;49.488;8.226;2023-09-19T16:52:41;23.90;88.50
18894;DHT22;9579;49.488;8.226;2023-09-19T16:55:29;23.80;89.90
18894;DHT22;9579;49.488;8.226;2023-09-19T16:58:16;23.70;90.20
18894;DHT22;9579;49.488;8.226;2023-09-19T17:01:06;23.60;90.20
18894;DHT22;9579;49.488;8.226;2023-09-19T17:03:56;23.60;90.40
18894;DHT22;9579;49.488;8.226;2023-09-19T17:06:43;23.50;90.30
18894;DHT22;9579;49.488;8.226;2023-09-19T17:09:32;23.50;90.50
18894;DHT22;9579;49.488;8.226;2023-09-19T17:12:19;23.50;90.80
18894;DHT22;9579;49.488;8.226;2023-09-19T17:15:07;23.40;90.60
18894;DHT22;9579;49.488;8.226;2023-09-19T17:17:54;23.40;90.80
18894;DHT22;9579;49.488;8.226;2023-09-19T17:20:42;23.30;91.30
18894;DHT22;9579;49.488;8.226;2023-09-19T17:23:31;23.30;91.60
18894;DHT22;9579;49.488;8.226;2023-09-19T17:26:19;23.30;91.40
18894;DHT22;9579;49.488;8.226;2023-09-19T17:29:08;23.20;91.40
18894;DHT22;9579;49.488;8.226;2023-09-19T17:31:56;23.20;92.00
18894;DHT22;9579;49.488;8.226;2023-09-19T17:34:46;23.20;92.20
18894;DHT22;9579;49.488;8.226;2023-09-19T17:37:34;23.20;92.00
18894;DHT22;9579;49.488;8.226;2023-09-19T17:40:22;23.20;91.70
18894;DHT22;9579;49.488;8.226;2023-09-19T17:43:09;23.10;91.70
18894;DHT22;9579;49.488;8.226;2023-09-19T17:45:56;23.00;92.20
18894;DHT22;9579;49.488;8.226;2023-09-19T17:48:45;23.00;92.10
18894;DHT22;9579;49.488;8.226;2023-09-19T17:51:32;23.00;92.80
18894;DHT22;9579;49.488;8.226;2023-09-19T17:54:21;23.00;92.70
18894;DHT22;9579;49.488;8.226;2023-09-19T17:57:09;23.00;92.70
18894;DHT22;9579;49.488;8.226;2023-09-19T17:59:56;22.90;92.90
18894;DHT22;9579;49.488;8.226;2023-09-19T18:02:43;22.90;93.30
18894;DHT22;9579;49.488;8.226;2023-09-19T18:05:30;22.80;93.20